Latest Coastal Weather Observations for Port Kembla Harbour

IDN60701

Issued at 4:35 am EST Tuesday 2 September 2014 (issued every 10 minutes, with the page automatically refreshed every 10 minutes)

About coastal observations | Map of coastal stations | Coastal observations for NSW | Marine services | Other Formats
Station Details ID: 068253 Name: PORT KEMBLA NTC AWS Lat: -34.47 Lon: 150.91 Height: 0.0 m
Data from the previous 72 hours. | See also: Recent months for locations in New South Wales
Date/Time
EST
Temp

°C
Wind Pressure Rain
since 9am
mm
Weather Cloud Vis
km
Sea
Height
m
Swell
Dir
 
Speed
knots
Gust
knots
hPa Trend Height
m
Period
s
Dir
02/04:30am 16.1 W 14 20 1008.1 - - - - - - - - -
02/04:00am 16.3 W 17 25 1008.2 - - - - - - - - -
02/03:30am 16.7 W 16 21 1008.4 - - - - - - - - -
02/03:00am 17.2 W 15 20 1008.4 - - - - - - - - -
02/02:30am 18.0 W 10 14 1008.2 - - - - - - - - -
02/02:00am 18.7 WNW 3 6 1008.1 - - - - - - - - -
02/01:30am 18.2 NNW 6 8 1008.0 - - - - - - - - -
02/01:00am 18.5 NNW 5 8 1008.1 - - - - - - - - -
02/12:30am 18.8 NNW 5 8 1008.5 - - - - - - - - -
02/12:00am 18.7 NNW 6 8 1008.7 - - - - - - - - -
 
Date/Time
EST
Temp

°C
Wind Pressure Rain
since 9am
mm
Weather Cloud Vis
km
Sea
Height
m
Swell
Dir
 
Speed
knots
Gust
knots
hPa Trend Height
m
Period
s
Dir
01/11:30pm 19.2 NNW 7 11 1009.3 - - - - - - - - -
01/11:00pm 18.8 NNW 7 10 1009.5 - - - - - - - - -
01/10:30pm 18.1 NW 5 6 1009.7 - - - - - - - - -
01/10:00pm 17.8 N 4 6 1009.8 - - - - - - - - -
01/09:30pm 16.9 WNW 1 3 1010.1 - - - - - - - - -
01/09:00pm 16.6 SW 2 4 1009.9 - - - - - - - - -
01/08:30pm 17.2 WSW 3 7 1010.3 - - - - - - - - -
01/08:00pm 17.1 SW 2 4 1010.5 - - - - - - - - -
01/07:30pm 17.2 N 2 4 1010.4 - - - - - - - - -
01/07:00pm 17.4 N 4 6 1010.4 - - - - - - - - -
01/06:30pm 17.9 NNW 5 9 1010.4 - - - - - - - - -
01/06:00pm 17.8 N 9 12 1010.0 - - - - - - - - -
01/05:30pm 18.1 N 10 14 1009.8 - - - - - - - - -
01/05:00pm 18.1 N 11 13 1009.8 - - - - - - - - -
01/04:30pm 18.1 NNE 9 13 1009.7 - - - - - - - - -
01/04:00pm 18.0 NE 12 17 1009.5 - - - - - - - - -
01/03:30pm 18.0 NNE 13 17 1009.4 - - - - - - - - -
01/03:00pm 18.1 NE 10 13 1009.5 - - - - - - - - -
01/02:30pm 18.0 NE 9 14 1009.8 - - - - - - - - -
01/02:00pm 18.6 NE 9 13 1010.2 - - - - - - - - -
01/01:30pm 18.2 ENE 7 11 1010.7 - - - - - - - - -
01/01:00pm 18.3 NE 9 14 1011.1 - - - - - - - - -
01/12:30pm 18.0 NE 10 14 1011.7 - - - - - - - - -
01/12:00pm 17.9 NE 10 14 1012.4 - - - - - - - - -
01/11:30am 17.6 NE 9 12 1012.8 - - - - - - - - -
01/11:00am 17.4 NNE 9 12 1013.4 - - - - - - - - -
01/10:30am 17.4 NE 9 12 1013.9 - - - - - - - - -
01/10:00am 17.6 NNE 6 9 1014.4 - - - - - - - - -
01/09:30am 17.5 N 7 11 1015.1 - - - - - - - - -
01/09:00am 16.6 N 7 9 1015.5 - - - - - - - - -
01/08:30am 17.5 NNW 6 10 1015.7 - - - - - - - - -
01/08:00am 16.3 WNW 4 8 1015.9 - - - - - - - - -
01/07:30am 13.7 S 1 3 1015.7 - - - - - - - - -
01/07:00am 12.8 WSW 4 6 1015.5 - - - - - - - - -
01/06:30am 12.7 W 3 5 1015.4 - - - - - - - - -
01/06:00am 12.4 W 4 5 1015.3 - - - - - - - - -
01/05:30am 12.6 W 6 7 1015.2 - - - - - - - - -
01/05:00am 13.1 W 4 5 1015.1 - - - - - - - - -
01/04:30am 13.0 WSW 2 3 1014.9 - - - - - - - - -
01/04:00am 12.9 WSW 2 5 1015.0 - - - - - - - - -
01/03:30am 12.4 SW 2 3 1015.1 - - - - - - - - -
01/03:00am 12.9 SW 1 2 1015.0 - - - - - - - - -
01/02:30am 12.8 CALM 0 2 1015.3 - - - - - - - - -
01/02:00am 13.0 SW 3 4 1015.9 - - - - - - - - -
01/01:30am 13.4 SW 1 3 1016.1 - - - - - - - - -
01/01:00am 14.0 WSW 1 2 1016.4 - - - - - - - - -
01/12:30am 13.6 SW 1 2 1016.6 - - - - - - - - -
01/12:00am 13.8 WSW 1 2 1016.9 - - - - - - - - -
 
Date/Time
EST
Temp

°C
Wind Pressure Rain
since 9am
mm
Weather Cloud Vis
km
Sea
Height
m
Swell
Dir
 
Speed
knots
Gust
knots
hPa Trend Height
m
Period
s
Dir
31/11:30pm 14.1 SSW 1 2 1017.2 - - - - - - - - -
31/11:00pm 14.0 W 3 7 1017.3 - - - - - - - - -
31/10:30pm 13.4 SW 3 4 1017.4 - - - - - - - - -
31/10:00pm 13.7 WSW 3 4 1017.5 - - - - - - - - -
31/09:30pm 13.7 SW 3 4 1017.5 - - - - - - - - -
31/09:00pm 13.8 WSW 3 4 1017.7 - - - - - - - - -
31/08:30pm 14.1 SW 3 4 1017.7 - - - - - - - - -
31/08:00pm 14.6 SW 2 3 1017.7 - - - - - - - - -
31/07:30pm 16.1 NNW 3 5 1017.6 - - - - - - - - -
31/07:00pm 16.3 NE 3 4 1017.3 - - - - - - - - -
31/06:30pm 16.5 NNE 2 3 1017.1 - - - - - - - - -
31/06:00pm 16.5 NE 3 5 1016.8 - - - - - - - - -
31/05:30pm 16.7 NE 4 5 1016.7 - - - - - - - - -
31/05:00pm 16.8 NE 4 6 1016.6 - - - - - - - - -
31/04:30pm 16.9 ENE 4 6 1016.6 - - - - - - - - -
31/04:00pm 17.1 ENE 5 6 1016.7 - - - - - - - - -
31/03:30pm 17.2 E 3 5 1016.8 - - - - - - - - -
31/03:00pm 17.2 E 4 6 1016.9 - - - - - - - - -
31/02:30pm 17.3 E 3 5 1017.1 - - - - - - - - -
31/02:00pm 17.2 ESE 3 7 1017.4 - - - - - - - - -
31/01:30pm 16.8 ESE 5 8 1017.7 - - - - - - - - -
31/01:00pm 16.5 ESE 7 9 1017.9 - - - - - - - - -
31/12:30pm 16.7 SE 7 10 1018.4 - - - - - - - - -
31/12:00pm 16.9 SE 6 9 1018.8 - - - - - - - - -
31/11:30am 16.4 SE 7 9 1019.3 - - - - - - - - -
31/11:00am 16.5 ESE 6 8 1019.5 - - - - - - - - -
31/10:30am 17.3 S 4 7 1019.8 - - - - - - - - -
31/10:00am 16.9 SSW 4 7 1020.1 - - - - - - - - -
31/09:30am 15.8 WSW 6 8 1020.3 - - - - - - - - -
31/09:00am 15.5 WSW 7 11 1020.4 - - - - - - - - -
31/08:30am 15.3 WSW 5 7 1020.5 - - - - - - - - -
31/08:00am 14.4 WSW 7 9 1020.5 - - - - - - - - -
31/07:30am 13.8 WSW 6 9 1020.3 - - - - - - - - -
31/07:00am 13.6 WSW 8 11 1020.3 - - - - - - - - -
31/06:30am 13.4 WSW 4 6 1020.2 - - - - - - - - -
31/06:00am 13.9 WSW 6 8 1019.9 - - - - - - - - -
31/05:30am 13.7 WSW 6 10 1019.8 - - - - - - - - -
31/05:00am 13.7 WSW 6 7 1019.8 - - - - - - - - -
31/04:30am 13.5 WSW 6 7 1019.8 - - - - - - - - -
31/04:00am 13.4 WSW 4 5 1019.8 - - - - - - - - -
31/03:30am 13.4 WSW 4 5 1019.9 - - - - - - - - -
31/03:00am 13.2 WSW 5 6 1020.1 - - - - - - - - -
31/02:30am 13.2 W 5 6 1020.2 - - - - - - - - -
31/02:00am 13.3 WSW 4 6 1020.3 - - - - - - - - -
31/01:30am 13.5 WSW 5 6 1020.7 - - - - - - - - -
31/01:00am 13.9 WSW 6 8 1020.9 - - - - - - - - -
31/12:30am 14.0 WSW 6 8 1021.2 - - - - - - - - -
31/12:00am 14.1 WSW 6 10 1021.3 - - - - - - - - -
 
Date/Time
EST
Temp

°C
Wind Pressure Rain
since 9am
mm
Weather Cloud Vis
km
Sea
Height
m
Swell
Dir
 
Speed
knots
Gust
knots
hPa Trend Height
m
Period
s
Dir
30/11:30pm 14.2 WSW 6 9 1021.4 - - - - - - - - -
30/11:00pm 14.1 WSW 7 10 1021.6 - - - - - - - - -
30/10:30pm 14.0 WSW 8 11 1021.8 - - - - - - - - -
30/10:00pm 14.0 SW 9 12 1021.8 - - - - - - - - -
30/09:30pm 14.4 SW 9 16 1021.9 - - - - - - - - -
30/09:00pm 14.4 WSW 9 14 1022.3 - - - - - - - - -
30/08:30pm 14.6 WSW 10 16 1022.2 - - - - - - - - -
30/08:00pm 14.4 SW 9 14 1022.3 - - - - - - - - -
30/07:30pm 14.2 WSW 10 14 1022.2 - - - - - - - - -
30/07:00pm 14.4 SW 10 16 1022.1 - - - - - - - - -
30/06:30pm 14.2 WSW 10 14 1021.8 - - - - - - - - -
30/06:00pm 14.4 SW 9 14 1021.8 - - - - - - - - -
30/05:30pm 14.8 SW 9 14 1021.8 - - - - - - - - -
30/05:00pm 14.9 SW 9 14 1021.6 - - - - - - - - -
30/04:30pm 14.7 SW 10 15 1021.6 - - - - - - - - -
30/04:00pm 15.2 SW 9 15 1021.7 - - - - - - - - -
30/03:30pm 15.0 SW 12 17 1021.7 - - - - - - - - -
30/03:00pm 14.4 SW 9 13 1021.9 - - - - - - - - -

Other Formats:

Comma delimited format used in spreadsheet applications
http://www.bom.gov.au/fwo/IDN60701/IDN60701.95745.axf

JavaScript Object Notation format (JSON) in row-major order
http://www.bom.gov.au/fwo/IDN60701/IDN60701.95745.json